sensor_id;sensor_type;location;lat;lon;timestamp;temperature;humidity
42037;DHT22;30340;52.004;5.908;2023-07-13T00:01:27;18.50;71.00
42037;DHT22;30340;52.004;5.908;2023-07-13T00:03:53;18.50;71.10
42037;DHT22;30340;52.004;5.908;2023-07-13T00:06:19;18.50;71.10
42037;DHT22;30340;52.004;5.908;2023-07-13T00:08:46;18.50;71.30
42037;DHT22;30340;52.004;5.908;2023-07-13T00:11:13;18.50;71.20
42037;DHT22;30340;52.004;5.908;2023-07-13T00:13:39;18.50;71.30
42037;DHT22;30340;52.004;5.908;2023-07-13T00:16:05;18.40;71.30
42037;DHT22;30340;52.004;5.908;2023-07-13T00:18:31;18.40;71.30
42037;DHT22;30340;52.004;5.908;2023-07-13T00:20:57;18.40;71.30
42037;DHT22;30340;52.004;5.908;2023-07-13T00:23:31;18.50;71.30
42037;DHT22;30340;52.004;5.908;2023-07-13T00:26:00;18.50;71.20
42037;DHT22;30340;52.004;5.908;2023-07-13T00:28:25;18.50;71.10
42037;DHT22;30340;52.004;5.908;2023-07-13T00:30:51;18.50;71.00
42037;DHT22;30340;52.004;5.908;2023-07-13T00:33:17;18.50;71.10
42037;DHT22;30340;52.004;5.908;2023-07-13T00:35:42;18.50;71.00
42037;DHT22;30340;52.004;5.908;2023-07-13T00:38:09;18.40;71.00
42037;DHT22;30340;52.004;5.908;2023-07-13T00:40:35;18.50;71.10
42037;DHT22;30340;52.004;5.908;2023-07-13T00:43:01;18.40;71.00
42037;DHT22;30340;52.004;5.908;2023-07-13T00:47:53;18.30;71.20
42037;DHT22;30340;52.004;5.908;2023-07-13T00:50:21;18.30;71.30
42037;DHT22;30340;52.004;5.908;2023-07-13T00:52:52;18.30;71.40
42037;DHT22;30340;52.004;5.908;2023-07-13T00:55:20;18.20;71.50
42037;DHT22;30340;52.004;5.908;2023-07-13T00:57:46;18.20;71.70
42037;DHT22;30340;52.004;5.908;2023-07-13T01:00:13;18.10;71.90
42037;DHT22;30340;52.004;5.908;2023-07-13T01:02:42;18.00;72.20
42037;DHT22;30340;52.004;5.908;2023-07-13T01:05:10;18.00;72.40
42037;DHT22;30340;52.004;5.908;2023-07-13T01:07:36;17.90;72.50
42037;DHT22;30340;52.004;5.908;2023-07-13T01:10:03;17.90;72.60
42037;DHT22;30340;52.004;5.908;2023-07-13T01:12:29;17.90;72.70
42037;DHT22;30340;52.004;5.908;2023-07-13T01:15:02;17.80;72.80
42037;DHT22;30340;52.004;5.908;2023-07-13T01:17:29;17.70;73.20
42037;DHT22;30340;52.004;5.908;2023-07-13T01:19:55;17.70;73.40
42037;DHT22;30340;52.004;5.908;2023-07-13T01:22:21;17.70;73.70
42037;DHT22;30340;52.004;5.908;2023-07-13T01:24:52;17.70;73.80
42037;DHT22;30340;52.004;5.908;2023-07-13T01:27:24;17.60;73.90
42037;DHT22;30340;52.004;5.908;2023-07-13T01:29:51;17.70;74.00
42037;DHT22;30340;52.004;5.908;2023-07-13T01:32:23;17.50;74.00
42037;DHT22;30340;52.004;5.908;2023-07-13T01:34:53;17.50;74.30
42037;DHT22;30340;52.004;5.908;2023-07-13T01:37:23;17.50;74.50
42037;DHT22;30340;52.004;5.908;2023-07-13T01:39:49;17.40;74.50
42037;DHT22;30340;52.004;5.908;2023-07-13T01:42:15;17.30;74.80
42037;DHT22;30340;52.004;5.908;2023-07-13T01:44:41;17.30;75.10
42037;DHT22;30340;52.004;5.908;2023-07-13T01:47:07;17.30;75.00
42037;DHT22;30340;52.004;5.908;2023-07-13T01:49:32;17.30;75.30
42037;DHT22;30340;52.004;5.908;2023-07-13T01:51:58;17.30;75.40
42037;DHT22;30340;52.004;5.908;2023-07-13T01:54:23;17.30;75.40
42037;DHT22;30340;52.004;5.908;2023-07-13T01:56:49;17.30;75.40
42037;DHT22;30340;52.004;5.908;2023-07-13T01:59:15;17.20;75.40
42037;DHT22;30340;52.004;5.908;2023-07-13T02:01:40;17.20;75.60
42037;DHT22;30340;52.004;5.908;2023-07-13T02:04:06;17.20;75.70
42037;DHT22;30340;52.004;5.908;2023-07-13T02:06:32;17.20;75.80
42037;DHT22;30340;52.004;5.908;2023-07-13T02:08:58;17.20;75.80
42037;DHT22;30340;52.004;5.908;2023-07-13T02:11:24;17.20;75.70
42037;DHT22;30340;52.004;5.908;2023-07-13T02:13:50;17.20;75.70
42037;DHT22;30340;52.004;5.908;2023-07-13T02:16:16;17.20;75.80
42037;DHT22;30340;52.004;5.908;2023-07-13T02:18:42;17.20;75.80
42037;DHT22;30340;52.004;5.908;2023-07-13T02:21:08;17.20;76.00
42037;DHT22;30340;52.004;5.908;2023-07-13T02:23:33;17.20;76.00
42037;DHT22;30340;52.004;5.908;2023-07-13T02:26:02;17.20;75.80
42037;DHT22;30340;52.004;5.908;2023-07-13T02:28:28;17.30;75.80
42037;DHT22;30340;52.004;5.908;2023-07-13T02:30:53;17.20;75.90
42037;DHT22;30340;52.004;5.908;2023-07-13T02:33:19;17.20;76.00
42037;DHT22;30340;52.004;5.908;2023-07-13T02:35:45;17.20;76.20
42037;DHT22;30340;52.004;5.908;2023-07-13T02:38:10;17.10;76.30
42037;DHT22;30340;52.004;5.908;2023-07-13T02:40:36;17.20;76.50
42037;DHT22;30340;52.004;5.908;2023-07-13T02:43:02;17.20;76.50
42037;DHT22;30340;52.004;5.908;2023-07-13T02:45:28;17.10;76.60
42037;DHT22;30340;52.004;5.908;2023-07-13T02:47:54;17.20;76.60
42037;DHT22;30340;52.004;5.908;2023-07-13T02:50:20;17.20;76.80
42037;DHT22;30340;52.004;5.908;2023-07-13T02:52:46;17.20;76.90
42037;DHT22;30340;52.004;5.908;2023-07-13T02:55:11;17.10;77.10
42037;DHT22;30340;52.004;5.908;2023-07-13T02:57:37;17.10;77.20
42037;DHT22;30340;52.004;5.908;2023-07-13T03:00:04;17.00;77.50
42037;DHT22;30340;52.004;5.908;2023-07-13T03:02:31;17.00;77.70
42037;DHT22;30340;52.004;5.908;2023-07-13T03:04:58;16.90;77.90
42037;DHT22;30340;52.004;5.908;2023-07-13T03:07:23;16.90;78.00
42037;DHT22;30340;52.004;5.908;2023-07-13T03:09:54;17.00;78.20
42037;DHT22;30340;52.004;5.908;2023-07-13T03:12:21;16.90;78.00
42037;DHT22;30340;52.004;5.908;2023-07-13T03:14:46;16.90;77.90
42037;DHT22;30340;52.004;5.908;2023-07-13T03:17:12;16.90;78.10
42037;DHT22;30340;52.004;5.908;2023-07-13T03:19:37;16.90;78.20
42037;DHT22;30340;52.004;5.908;2023-07-13T03:22:03;16.90;78.20
42037;DHT22;30340;52.004;5.908;2023-07-13T03:24:29;16.90;78.20
42037;DHT22;30340;52.004;5.908;2023-07-13T03:26:55;16.90;78.40
42037;DHT22;30340;52.004;5.908;2023-07-13T03:29:20;16.90;78.60
42037;DHT22;30340;52.004;5.908;2023-07-13T03:31:46;16.80;78.70
42037;DHT22;30340;52.004;5.908;2023-07-13T03:34:12;16.90;78.80
42037;DHT22;30340;52.004;5.908;2023-07-13T03:36:38;16.80;79.10
42037;DHT22;30340;52.004;5.908;2023-07-13T03:39:04;16.80;79.50
42037;DHT22;30340;52.004;5.908;2023-07-13T03:41:34;16.70;80.00
42037;DHT22;30340;52.004;5.908;2023-07-13T03:44:00;16.70;80.10
42037;DHT22;30340;52.004;5.908;2023-07-13T03:46:25;16.60;80.40
42037;DHT22;30340;52.004;5.908;2023-07-13T03:48:51;16.60;80.80
42037;DHT22;30340;52.004;5.908;2023-07-13T03:51:18;16.50;80.90
42037;DHT22;30340;52.004;5.908;2023-07-13T03:53:46;16.60;81.00
42037;DHT22;30340;52.004;5.908;2023-07-13T03:56:12;16.50;81.40
42037;DHT22;30340;52.004;5.908;2023-07-13T03:58:42;16.40;81.80
42037;DHT22;30340;52.004;5.908;2023-07-13T04:01:09;16.50;82.00
42037;DHT22;30340;52.004;5.908;2023-07-13T04:03:35;16.50;81.90
42037;DHT22;30340;52.004;5.908;2023-07-13T04:06:17;16.50;82.00
42037;DHT22;30340;52.004;5.908;2023-07-13T04:08:49;16.50;81.90
42037;DHT22;30340;52.004;5.908;2023-07-13T04:11:16;16.60;82.00
42037;DHT22;30340;52.004;5.908;2023-07-13T04:13:41;16.60;82.00
42037;DHT22;30340;52.004;5.908;2023-07-13T04:16:07;16.60;82.10
42037;DHT22;30340;52.004;5.908;2023-07-13T04:18:33;16.60;82.10
42037;DHT22;30340;52.004;5.908;2023-07-13T04:20:58;16.60;82.00
42037;DHT22;30340;52.004;5.908;2023-07-13T04:23:24;16.60;82.00
42037;DHT22;30340;52.004;5.908;2023-07-13T04:25:52;16.60;82.10
42037;DHT22;30340;52.004;5.908;2023-07-13T04:28:19;16.70;81.90
42037;DHT22;30340;52.004;5.908;2023-07-13T04:30:45;16.70;82.00
42037;DHT22;30340;52.004;5.908;2023-07-13T04:33:11;16.80;82.10
42037;DHT22;30340;52.004;5.908;2023-07-13T04:35:36;16.80;82.00
42037;DHT22;30340;52.004;5.908;2023-07-13T04:38:03;16.80;82.00
42037;DHT22;30340;52.004;5.908;2023-07-13T04:40:29;16.90;82.10
42037;DHT22;30340;52.004;5.908;2023-07-13T04:42:55;16.90;82.10
42037;DHT22;30340;52.004;5.908;2023-07-13T04:45:21;17.00;82.00
42037;DHT22;30340;52.004;5.908;2023-07-13T04:47:49;17.10;82.10
42037;DHT22;30340;52.004;5.908;2023-07-13T04:50:15;17.10;82.10
42037;DHT22;30340;52.004;5.908;2023-07-13T04:52:44;17.10;81.90
42037;DHT22;30340;52.004;5.908;2023-07-13T04:55:10;17.20;81.80
42037;DHT22;30340;52.004;5.908;2023-07-13T04:57:36;17.20;81.70
42037;DHT22;30340;52.004;5.908;2023-07-13T05:00:02;17.30;81.60
42037;DHT22;30340;52.004;5.908;2023-07-13T05:02:30;17.20;81.70
42037;DHT22;30340;52.004;5.908;2023-07-13T05:04:57;17.20;82.00
42037;DHT22;30340;52.004;5.908;2023-07-13T05:07:22;17.30;81.90
42037;DHT22;30340;52.004;5.908;2023-07-13T05:09:48;17.30;81.70
42037;DHT22;30340;52.004;5.908;2023-07-13T05:12:14;17.30;81.70
42037;DHT22;30340;52.004;5.908;2023-07-13T05:14:39;17.40;81.70
42037;DHT22;30340;52.004;5.908;2023-07-13T05:17:05;17.40;81.80
42037;DHT22;30340;52.004;5.908;2023-07-13T05:19:31;17.40;81.70
42037;DHT22;30340;52.004;5.908;2023-07-13T05:21:56;17.50;81.70
42037;DHT22;30340;52.004;5.908;2023-07-13T05:24:22;17.50;81.70
42037;DHT22;30340;52.004;5.908;2023-07-13T05:26:48;17.50;81.70
42037;DHT22;30340;52.004;5.908;2023-07-13T05:29:14;17.40;82.20
42037;DHT22;30340;52.004;5.908;2023-07-13T05:31:39;17.40;82.50
42037;DHT22;30340;52.004;5.908;2023-07-13T05:34:05;17.40;82.50
42037;DHT22;30340;52.004;5.908;2023-07-13T05:36:31;17.50;82.50
42037;DHT22;30340;52.004;5.908;2023-07-13T05:38:56;17.60;82.50
42037;DHT22;30340;52.004;5.908;2023-07-13T05:41:23;17.50;82.50
42037;DHT22;30340;52.004;5.908;2023-07-13T05:43:49;17.50;82.80
42037;DHT22;30340;52.004;5.908;2023-07-13T05:46:14;17.60;82.80
42037;DHT22;30340;52.004;5.908;2023-07-13T05:48:40;17.70;82.50
42037;DHT22;30340;52.004;5.908;2023-07-13T05:51:06;17.60;82.90
42037;DHT22;30340;52.004;5.908;2023-07-13T05:53:32;17.80;82.90
42037;DHT22;30340;52.004;5.908;2023-07-13T05:55:57;17.90;82.80
42037;DHT22;30340;52.004;5.908;2023-07-13T05:58:23;18.10;82.30
42037;DHT22;30340;52.004;5.908;2023-07-13T06:00:59;18.20;81.80
42037;DHT22;30340;52.004;5.908;2023-07-13T06:03:25;18.40;81.40
42037;DHT22;30340;52.004;5.908;2023-07-13T06:05:51;18.40;80.80
42037;DHT22;30340;52.004;5.908;2023-07-13T06:08:17;18.40;80.90
42037;DHT22;30340;52.004;5.908;2023-07-13T06:10:42;18.30;81.20
42037;DHT22;30340;52.004;5.908;2023-07-13T06:13:08;18.30;81.30
42037;DHT22;30340;52.004;5.908;2023-07-13T06:15:33;18.30;81.30
42037;DHT22;30340;52.004;5.908;2023-07-13T06:17:59;18.50;81.40
42037;DHT22;30340;52.004;5.908;2023-07-13T06:20:25;18.50;81.00
42037;DHT22;30340;52.004;5.908;2023-07-13T06:22:50;18.60;81.10
42037;DHT22;30340;52.004;5.908;2023-07-13T06:25:16;18.60;81.10
42037;DHT22;30340;52.004;5.908;2023-07-13T06:27:43;18.70;81.10
42037;DHT22;30340;52.004;5.908;2023-07-13T06:30:09;18.70;81.10
42037;DHT22;30340;52.004;5.908;2023-07-13T06:32:35;18.70;81.10
42037;DHT22;30340;52.004;5.908;2023-07-13T06:35:01;18.80;81.10
42037;DHT22;30340;52.004;5.908;2023-07-13T06:37:27;18.80;81.60
42037;DHT22;30340;52.004;5.908;2023-07-13T06:39:52;18.90;81.00
42037;DHT22;30340;52.004;5.908;2023-07-13T06:42:19;19.00;80.80
42037;DHT22;30340;52.004;5.908;2023-07-13T06:44:44;19.10;80.70
42037;DHT22;30340;52.004;5.908;2023-07-13T06:47:10;19.10;81.00
42037;DHT22;30340;52.004;5.908;2023-07-13T06:49:36;19.20;80.70
42037;DHT22;30340;52.004;5.908;2023-07-13T06:52:02;19.30;80.40
42037;DHT22;30340;52.004;5.908;2023-07-13T06:54:27;19.30;80.40
42037;DHT22;30340;52.004;5.908;2023-07-13T06:56:53;19.40;80.30
42037;DHT22;30340;52.004;5.908;2023-07-13T06:59:19;19.50;80.20
42037;DHT22;30340;52.004;5.908;2023-07-13T07:01:44;19.80;79.90
42037;DHT22;30340;52.004;5.908;2023-07-13T07:04:10;19.90;79.30
42037;DHT22;30340;52.004;5.908;2023-07-13T07:06:36;20.00;78.80
42037;DHT22;30340;52.004;5.908;2023-07-13T07:09:01;20.10;78.60
42037;DHT22;30340;52.004;5.908;2023-07-13T07:11:27;20.20;78.50
42037;DHT22;30340;52.004;5.908;2023-07-13T07:13:53;19.90;78.40
42037;DHT22;30340;52.004;5.908;2023-07-13T07:16:20;19.80;78.90
42037;DHT22;30340;52.004;5.908;2023-07-13T07:18:46;19.70;79.30
42037;DHT22;30340;52.004;5.908;2023-07-13T07:21:13;19.70;79.70
42037;DHT22;30340;52.004;5.908;2023-07-13T07:23:39;19.80;79.70
42037;DHT22;30340;52.004;5.908;2023-07-13T07:26:05;19.80;79.60
42037;DHT22;30340;52.004;5.908;2023-07-13T07:28:32;19.80;79.50
42037;DHT22;30340;52.004;5.908;2023-07-13T07:30:58;19.80;79.40
42037;DHT22;30340;52.004;5.908;2023-07-13T07:33:24;19.80;79.40
42037;DHT22;30340;52.004;5.908;2023-07-13T07:35:51;19.80;79.50
42037;DHT22;30340;52.004;5.908;2023-07-13T07:38:17;19.90;79.40
42037;DHT22;30340;52.004;5.908;2023-07-13T07:40:43;20.00;79.20
42037;DHT22;30340;52.004;5.908;2023-07-13T07:43:10;20.00;78.90
42037;DHT22;30340;52.004;5.908;2023-07-13T07:45:37;19.90;78.80
42037;DHT22;30340;52.004;5.908;2023-07-13T07:48:04;20.00;79.00
42037;DHT22;30340;52.004;5.908;2023-07-13T07:50:30;20.00;78.90
42037;DHT22;30340;52.004;5.908;2023-07-13T07:52:56;20.20;79.30
42037;DHT22;30340;52.004;5.908;2023-07-13T07:55:22;20.30;78.30
42037;DHT22;30340;52.004;5.908;2023-07-13T07:57:48;20.40;78.10
42037;DHT22;30340;52.004;5.908;2023-07-13T08:00:15;20.50;77.70
42037;DHT22;30340;52.004;5.908;2023-07-13T08:02:41;20.50;77.60
42037;DHT22;30340;52.004;5.908;2023-07-13T08:05:10;20.40;77.50
42037;DHT22;30340;52.004;5.908;2023-07-13T08:07:37;20.50;77.70
42037;DHT22;30340;52.004;5.908;2023-07-13T08:10:04;20.80;77.50
42037;DHT22;30340;52.004;5.908;2023-07-13T08:12:30;21.00;76.90
42037;DHT22;30340;52.004;5.908;2023-07-13T08:14:55;21.10;76.80
42037;DHT22;30340;52.004;5.908;2023-07-13T08:17:24;21.00;75.60
42037;DHT22;30340;52.004;5.908;2023-07-13T08:19:50;21.00;75.60
42037;DHT22;30340;52.004;5.908;2023-07-13T08:22:16;21.20;75.40
42037;DHT22;30340;52.004;5.908;2023-07-13T08:24:42;21.20;74.80
42037;DHT22;30340;52.004;5.908;2023-07-13T08:27:11;21.20;74.70
42037;DHT22;30340;52.004;5.908;2023-07-13T08:29:37;21.40;74.60
42037;DHT22;30340;52.004;5.908;2023-07-13T08:32:04;21.60;74.50
42037;DHT22;30340;52.004;5.908;2023-07-13T08:34:31;21.80;74.20
42037;DHT22;30340;52.004;5.908;2023-07-13T08:36:57;21.90;73.60
42037;DHT22;30340;52.004;5.908;2023-07-13T08:39:22;22.10;73.10
42037;DHT22;30340;52.004;5.908;2023-07-13T08:41:53;22.30;72.30
42037;DHT22;30340;52.004;5.908;2023-07-13T08:44:30;22.60;71.50
42037;DHT22;30340;52.004;5.908;2023-07-13T08:47:00;22.70;69.70
42037;DHT22;30340;52.004;5.908;2023-07-13T08:49:30;22.70;68.80
42037;DHT22;30340;52.004;5.908;2023-07-13T08:52:02;22.60;68.30
42037;DHT22;30340;52.004;5.908;2023-07-13T08:54:36;22.40;68.70
42037;DHT22;30340;52.004;5.908;2023-07-13T08:57:10;22.20;68.80
42037;DHT22;30340;52.004;5.908;2023-07-13T08:59:37;21.90;69.50
42037;DHT22;30340;52.004;5.908;2023-07-13T09:04:50;21.70;70.80
42037;DHT22;30340;52.004;5.908;2023-07-13T09:15:29;22.20;70.20
42037;DHT22;30340;52.004;5.908;2023-07-13T09:18:07;22.30;68.70
42037;DHT22;30340;52.004;5.908;2023-07-13T09:20:42;22.40;68.10
42037;DHT22;30340;52.004;5.908;2023-07-13T09:23:17;22.50;66.90
42037;DHT22;30340;52.004;5.908;2023-07-13T09:26:31;22.60;66.90
42037;DHT22;30340;52.004;5.908;2023-07-13T09:28:40;22.70;66.30
42037;DHT22;30340;52.004;5.908;2023-07-13T09:31:33;22.60;65.40
42037;DHT22;30340;52.004;5.908;2023-07-13T09:34:00;22.60;65.00
42037;DHT22;30340;52.004;5.908;2023-07-13T09:36:34;22.50;64.50
42037;DHT22;30340;52.004;5.908;2023-07-13T09:39:28;22.30;64.50
42037;DHT22;30340;52.004;5.908;2023-07-13T09:42:20;22.00;66.00
42037;DHT22;30340;52.004;5.908;2023-07-13T09:47:17;21.60;69.50
42037;DHT22;30340;52.004;5.908;2023-07-13T09:49:43;21.40;70.70
42037;DHT22;30340;52.004;5.908;2023-07-13T09:52:15;21.40;71.30
42037;DHT22;30340;52.004;5.908;2023-07-13T09:54:46;21.40;71.10
42037;DHT22;30340;52.004;5.908;2023-07-13T09:57:19;21.40;71.30
42037;DHT22;30340;52.004;5.908;2023-07-13T09:59:49;21.40;71.50
42037;DHT22;30340;52.004;5.908;2023-07-13T10:02:31;21.40;71.60
42037;DHT22;30340;52.004;5.908;2023-07-13T10:05:10;21.50;71.50
42037;DHT22;30340;52.004;5.908;2023-07-13T10:07:43;21.50;71.50
42037;DHT22;30340;52.004;5.908;2023-07-13T10:10:18;21.40;71.70
42037;DHT22;30340;52.004;5.908;2023-07-13T10:12:46;21.50;72.20
42037;DHT22;30340;52.004;5.908;2023-07-13T10:15:17;21.70;72.20
42037;DHT22;30340;52.004;5.908;2023-07-13T10:17:44;21.80;71.90
42037;DHT22;30340;52.004;5.908;2023-07-13T10:20:10;22.00;71.80
42037;DHT22;30340;52.004;5.908;2023-07-13T10:25:27;22.20;71.10
42037;DHT22;30340;52.004;5.908;2023-07-13T10:30:48;22.50;69.10
42037;DHT22;30340;52.004;5.908;2023-07-13T10:33:14;22.60;68.00
42037;DHT22;30340;52.004;5.908;2023-07-13T10:35:42;22.70;67.50
42037;DHT22;30340;52.004;5.908;2023-07-13T10:38:14;22.60;66.20
42037;DHT22;30340;52.004;5.908;2023-07-13T10:43:20;22.40;66.90
42037;DHT22;30340;52.004;5.908;2023-07-13T10:45:48;22.50;66.40
42037;DHT22;30340;52.004;5.908;2023-07-13T10:48:16;22.60;66.40
42037;DHT22;30340;52.004;5.908;2023-07-13T10:50:44;22.70;65.80
42037;DHT22;30340;52.004;5.908;2023-07-13T10:53:22;22.60;65.30
42037;DHT22;30340;52.004;5.908;2023-07-13T10:58:28;22.30;65.90
42037;DHT22;30340;52.004;5.908;2023-07-13T11:01:17;22.30;66.70
42037;DHT22;30340;52.004;5.908;2023-07-13T11:03:50;22.40;67.50
42037;DHT22;30340;52.004;5.908;2023-07-13T11:08:55;22.90;67.50
42037;DHT22;30340;52.004;5.908;2023-07-13T11:19:37;23.00;65.80
42037;DHT22;30340;52.004;5.908;2023-07-13T11:25:17;23.00;65.40
42037;DHT22;30340;52.004;5.908;2023-07-13T11:27:50;23.00;64.90
42037;DHT22;30340;52.004;5.908;2023-07-13T11:32:45;22.60;66.70
42037;DHT22;30340;52.004;5.908;2023-07-13T11:35:21;22.40;68.30
42037;DHT22;30340;52.004;5.908;2023-07-13T11:37:48;22.40;69.90
42037;DHT22;30340;52.004;5.908;2023-07-13T11:40:15;22.50;70.00
42037;DHT22;30340;52.004;5.908;2023-07-13T11:42:40;22.50;69.80
42037;DHT22;30340;52.004;5.908;2023-07-13T11:45:22;22.50;69.90
42037;DHT22;30340;52.004;5.908;2023-07-13T11:47:50;22.80;70.30
42037;DHT22;30340;52.004;5.908;2023-07-13T11:50:19;23.00;69.40
42037;DHT22;30340;52.004;5.908;2023-07-13T11:52:45;23.20;68.60
42037;DHT22;30340;52.004;5.908;2023-07-13T11:55:17;23.30;67.00
42037;DHT22;30340;52.004;5.908;2023-07-13T11:57:47;23.30;66.70
42037;DHT22;30340;52.004;5.908;2023-07-13T12:00:17;23.30;66.20
42037;DHT22;30340;52.004;5.908;2023-07-13T12:02:46;23.30;65.80
42037;DHT22;30340;52.004;5.908;2023-07-13T12:05:15;23.30;65.40
42037;DHT22;30340;52.004;5.908;2023-07-13T12:07:41;23.20;64.60
42037;DHT22;30340;52.004;5.908;2023-07-13T12:13:00;23.10;64.20
42037;DHT22;30340;52.004;5.908;2023-07-13T12:15:44;22.90;63.70
42037;DHT22;30340;52.004;5.908;2023-07-13T12:18:19;22.80;64.40
42037;DHT22;30340;52.004;5.908;2023-07-13T12:20:46;22.90;64.80
42037;DHT22;30340;52.004;5.908;2023-07-13T12:23:33;23.10;65.20
42037;DHT22;30340;52.004;5.908;2023-07-13T12:26:02;23.30;64.60
42037;DHT22;30340;52.004;5.908;2023-07-13T12:31:07;23.80;63.30
42037;DHT22;30340;52.004;5.908;2023-07-13T12:33:33;24.00;62.70
42037;DHT22;30340;52.004;5.908;2023-07-13T12:36:05;24.20;62.40
42037;DHT22;30340;52.004;5.908;2023-07-13T12:38:32;24.20;61.80
42037;DHT22;30340;52.004;5.908;2023-07-13T12:40:58;24.10;61.40
42037;DHT22;30340;52.004;5.908;2023-07-13T12:43:24;24.00;61.00
42037;DHT22;30340;52.004;5.908;2023-07-13T12:48:28;23.70;61.00
42037;DHT22;30340;52.004;5.908;2023-07-13T12:50:55;23.50;61.80
42037;DHT22;30340;52.004;5.908;2023-07-13T12:53:40;23.40;62.80
42037;DHT22;30340;52.004;5.908;2023-07-13T12:56:05;23.20;62.90
42037;DHT22;30340;52.004;5.908;2023-07-13T12:58:41;23.00;63.40
42037;DHT22;30340;52.004;5.908;2023-07-13T13:01:10;22.80;63.70
42037;DHT22;30340;52.004;5.908;2023-07-13T13:03:45;22.80;64.00
42037;DHT22;30340;52.004;5.908;2023-07-13T13:06:25;22.80;64.20
42037;DHT22;30340;52.004;5.908;2023-07-13T13:08:54;22.90;63.70
42037;DHT22;30340;52.004;5.908;2023-07-13T13:11:22;23.20;63.20
42037;DHT22;30340;52.004;5.908;2023-07-13T13:13:49;23.30;62.90
42037;DHT22;30340;52.004;5.908;2023-07-13T13:18:51;23.70;62.50
42037;DHT22;30340;52.004;5.908;2023-07-13T13:21:17;23.70;62.20
42037;DHT22;30340;52.004;5.908;2023-07-13T13:23:45;23.80;62.10
42037;DHT22;30340;52.004;5.908;2023-07-13T13:26:13;23.90;62.10
42037;DHT22;30340;52.004;5.908;2023-07-13T13:28:40;24.20;61.90
42037;DHT22;30340;52.004;5.908;2023-07-13T13:31:08;24.30;61.20
42037;DHT22;30340;52.004;5.908;2023-07-13T13:33:38;24.30;60.90
42037;DHT22;30340;52.004;5.908;2023-07-13T13:36:22;24.30;61.30
42037;DHT22;30340;52.004;5.908;2023-07-13T13:38:49;24.20;61.20
42037;DHT22;30340;52.004;5.908;2023-07-13T13:41:16;24.00;61.60
42037;DHT22;30340;52.004;5.908;2023-07-13T13:43:43;24.20;61.70
42037;DHT22;30340;52.004;5.908;2023-07-13T13:46:37;24.50;61.40
42037;DHT22;30340;52.004;5.908;2023-07-13T13:49:02;24.60;60.30
42037;DHT22;30340;52.004;5.908;2023-07-13T13:51:28;24.70;59.80
42037;DHT22;30340;52.004;5.908;2023-07-13T13:53:55;24.90;59.50
42037;DHT22;30340;52.004;5.908;2023-07-13T13:56:20;25.10;59.30
42037;DHT22;30340;52.004;5.908;2023-07-13T13:58:46;25.30;58.70
42037;DHT22;30340;52.004;5.908;2023-07-13T14:01:18;25.30;58.50
42037;DHT22;30340;52.004;5.908;2023-07-13T14:03:44;25.50;58.60
42037;DHT22;30340;52.004;5.908;2023-07-13T14:06:14;25.80;58.00
42037;DHT22;30340;52.004;5.908;2023-07-13T14:08:40;25.80;57.80
42037;DHT22;30340;52.004;5.908;2023-07-13T14:11:14;26.00;56.30
42037;DHT22;30340;52.004;5.908;2023-07-13T14:13:43;26.10;54.40
42037;DHT22;30340;52.004;5.908;2023-07-13T14:16:12;26.30;53.40
42037;DHT22;30340;52.004;5.908;2023-07-13T14:18:39;26.40;52.50
42037;DHT22;30340;52.004;5.908;2023-07-13T14:21:12;26.40;52.00
42037;DHT22;30340;52.004;5.908;2023-07-13T14:23:38;26.50;51.80
42037;DHT22;30340;52.004;5.908;2023-07-13T14:26:13;26.40;51.80
42037;DHT22;30340;52.004;5.908;2023-07-13T14:28:44;26.30;51.70
42037;DHT22;30340;52.004;5.908;2023-07-13T14:31:12;26.20;51.30
42037;DHT22;30340;52.004;5.908;2023-07-13T14:33:38;26.10;52.00
42037;DHT22;30340;52.004;5.908;2023-07-13T14:36:42;26.20;52.20
42037;DHT22;30340;52.004;5.908;2023-07-13T14:39:18;26.30;52.00
42037;DHT22;30340;52.004;5.908;2023-07-13T14:41:44;26.40;51.20
42037;DHT22;30340;52.004;5.908;2023-07-13T14:44:15;26.30;50.80
42037;DHT22;30340;52.004;5.908;2023-07-13T14:46:42;26.20;50.70
42037;DHT22;30340;52.004;5.908;2023-07-13T14:49:31;26.00;50.70
42037;DHT22;30340;52.004;5.908;2023-07-13T14:51:59;25.80;51.30
42037;DHT22;30340;52.004;5.908;2023-07-13T14:54:25;25.80;51.30
42037;DHT22;30340;52.004;5.908;2023-07-13T14:56:51;25.70;51.00
42037;DHT22;30340;52.004;5.908;2023-07-13T14:59:17;25.60;50.90
42037;DHT22;30340;52.004;5.908;2023-07-13T15:01:46;25.50;51.10
42037;DHT22;30340;52.004;5.908;2023-07-13T15:04:13;25.50;51.30
42037;DHT22;30340;52.004;5.908;2023-07-13T15:06:57;25.30;51.40
42037;DHT22;30340;52.004;5.908;2023-07-13T15:09:25;25.10;51.50
42037;DHT22;30340;52.004;5.908;2023-07-13T15:11:55;25.00;51.10
42037;DHT22;30340;52.004;5.908;2023-07-13T15:14:21;24.80;51.50
42037;DHT22;30340;52.004;5.908;2023-07-13T15:16:49;24.70;51.70
42037;DHT22;30340;52.004;5.908;2023-07-13T15:19:16;24.80;51.90
42037;DHT22;30340;52.004;5.908;2023-07-13T15:21:42;24.70;51.90
42037;DHT22;30340;52.004;5.908;2023-07-13T15:24:10;24.60;51.90
42037;DHT22;30340;52.004;5.908;2023-07-13T15:26:36;24.60;52.00
42037;DHT22;30340;52.004;5.908;2023-07-13T15:29:02;24.60;52.90
42037;DHT22;30340;52.004;5.908;2023-07-13T15:31:28;24.50;52.10
42037;DHT22;30340;52.004;5.908;2023-07-13T15:33:56;24.50;52.20
42037;DHT22;30340;52.004;5.908;2023-07-13T15:36:23;24.50;52.10
42037;DHT22;30340;52.004;5.908;2023-07-13T15:38:52;24.60;52.40
42037;DHT22;30340;52.004;5.908;2023-07-13T15:41:24;24.50;52.60
42037;DHT22;30340;52.004;5.908;2023-07-13T15:43:52;24.50;52.70
42037;DHT22;30340;52.004;5.908;2023-07-13T15:46:22;24.40;52.70
42037;DHT22;30340;52.004;5.908;2023-07-13T15:48:50;24.30;53.00
42037;DHT22;30340;52.004;5.908;2023-07-13T15:51:29;24.30;53.30
42037;DHT22;30340;52.004;5.908;2023-07-13T15:53:58;24.20;53.40
42037;DHT22;30340;52.004;5.908;2023-07-13T15:56:27;24.20;53.50
42037;DHT22;30340;52.004;5.908;2023-07-13T15:58:54;24.20;53.50
42037;DHT22;30340;52.004;5.908;2023-07-13T16:01:22;24.20;53.70
42037;DHT22;30340;52.004;5.908;2023-07-13T16:03:48;24.30;53.70
42037;DHT22;30340;52.004;5.908;2023-07-13T16:06:20;24.30;53.20
42037;DHT22;30340;52.004;5.908;2023-07-13T16:08:48;24.40;53.20
42037;DHT22;30340;52.004;5.908;2023-07-13T16:11:24;24.60;53.60
42037;DHT22;30340;52.004;5.908;2023-07-13T16:13:51;24.60;54.20
42037;DHT22;30340;52.004;5.908;2023-07-13T16:16:28;24.60;54.60
42037;DHT22;30340;52.004;5.908;2023-07-13T16:19:07;24.50;54.80
42037;DHT22;30340;52.004;5.908;2023-07-13T16:21:44;24.60;55.00
42037;DHT22;30340;52.004;5.908;2023-07-13T16:24:19;24.70;54.90
42037;DHT22;30340;52.004;5.908;2023-07-13T16:26:46;24.70;54.80
42037;DHT22;30340;52.004;5.908;2023-07-13T16:34:31;24.40;55.30
42037;DHT22;30340;52.004;5.908;2023-07-13T16:36:57;24.30;55.60